createdAt,value
2022-10-25T00:04:12.408Z,13.7
2022-10-25T00:09:27.722Z,13.7
2022-10-25T00:14:39.131Z,13.6
2022-10-25T00:19:41.720Z,13.7
2022-10-25T00:24:48.095Z,13.7
2022-10-25T00:29:44.484Z,13.6
2022-10-25T00:35:01.034Z,13.7
2022-10-25T00:45:13.878Z,13.7
2022-10-25T00:50:48.280Z,13.7
2022-10-25T00:55:30.607Z,13.7
2022-10-25T01:00:23.037Z,13.7
2022-10-25T01:05:39.382Z,13.7
2022-10-25T01:10:45.755Z,13.7
2022-10-25T01:15:52.147Z,13.7
2022-10-25T01:22:30.674Z,13.8
2022-10-25T01:31:01.300Z,13.8
2022-10-25T01:36:37.716Z,13.7
2022-10-25T01:41:24.053Z,13.7
2022-10-25T01:46:20.445Z,13.7
2022-10-25T01:57:18.315Z,13.7
2022-10-25T02:02:14.704Z,13.7
2022-10-25T02:07:21.174Z,13.7
2022-10-25T02:12:37.568Z,13.7
2022-10-25T02:17:57.995Z,13.7
2022-10-25T02:22:50.432Z,13.8
2022-10-25T02:27:47.002Z,13.8
2022-10-25T02:33:03.182Z,13.8
2022-10-25T02:38:11.118Z,13.8
2022-10-25T02:48:13.934Z,13.8
2022-10-25T02:53:30.290Z,13.8
2022-10-25T02:59:52.736Z,13.8
2022-10-25T03:08:52.425Z,13.8
2022-10-25T03:19:02.247Z,13.8
2022-10-25T03:23:58.606Z,13.8
2022-10-25T03:29:05.000Z,13.8
2022-10-25T03:34:21.447Z,13.8
2022-10-25T03:39:17.769Z,13.9
2022-10-25T03:44:34.167Z,13.9
2022-10-25T03:49:40.583Z,13.9
2022-10-25T03:54:46.938Z,13.8
2022-10-25T03:59:53.329Z,13.8
2022-10-25T04:04:59.821Z,13.8
2022-10-25T04:10:26.322Z,13.8
2022-10-25T04:15:16.658Z,13.8
2022-10-25T04:20:09.169Z,13.8
2022-10-25T04:25:25.638Z,13.8
2022-10-25T04:30:22.007Z,13.8
2022-10-25T04:35:38.434Z,13.8
2022-10-25T04:41:28.884Z,13.8
2022-10-25T04:46:36.277Z,13.8
2022-10-25T04:52:06.723Z,13.9
2022-10-25T04:57:03.096Z,13.8
2022-10-25T05:01:55.462Z,13.8
2022-10-25T05:07:09.893Z,13.8
2022-10-25T05:12:42.330Z,13.8
2022-10-25T05:18:13.744Z,13.8
2022-10-25T05:22:56.090Z,13.8
2022-10-25T05:33:08.812Z,13.8
2022-10-25T05:38:39.338Z,13.7
2022-10-25T05:43:21.634Z,13.7
2022-10-25T05:48:28.138Z,13.7
2022-10-25T05:53:24.495Z,13.7
2022-10-25T05:58:40.918Z,13.7
2022-10-25T06:03:47.280Z,13.7
2022-10-25T06:08:43.640Z,13.7
2022-10-25T06:14:04.079Z,13.7
2022-10-25T06:19:06.435Z,13.7
2022-10-25T06:24:16.821Z,13.6
2022-10-25T06:34:25.702Z,13.6
2022-10-25T06:39:56.200Z,13.6
2022-10-25T06:44:27.546Z,13.5
2022-10-25T06:49:44.937Z,13.5
2022-10-25T06:54:51.322Z,13.5
2022-10-25T07:05:08.104Z,13.4
2022-10-25T07:15:38.713Z,13.4
2022-10-25T07:20:13.354Z,13.4
2022-10-25T07:25:29.762Z,13.4
2022-10-25T07:30:36.140Z,13.4
2022-10-25T07:35:52.549Z,13.5
2022-10-25T07:56:54.127Z,14.4
2022-10-25T08:12:17.983Z,14.6
2022-10-25T08:17:21.366Z,14.6
2022-10-25T08:22:55.807Z,14.7
2022-10-25T08:32:59.025Z,14.6
2022-10-25T08:37:36.414Z,14.7
2022-10-25T08:42:42.809Z,14.7
2022-10-25T08:47:59.204Z,14.8
2022-10-25T08:53:05.635Z,15.0
2022-10-25T08:58:32.043Z,15.1
2022-10-25T09:03:18.392Z,15.3
2022-10-25T09:08:24.797Z,15.3
2022-10-25T09:13:45.194Z,15.5
2022-10-25T09:18:27.526Z,15.4
2022-10-25T09:23:46.957Z,15.5
2022-10-25T09:29:14.361Z,15.5
2022-10-25T09:34:03.969Z,15.6
2022-10-25T09:39:23.140Z,15.6
2022-10-25T09:44:09.463Z,15.7
2022-10-25T09:49:35.877Z,15.7
2022-10-25T09:54:22.228Z,15.8
2022-10-25T09:59:48.966Z,15.9
2022-10-25T10:04:35.283Z,16.1
2022-10-25T10:09:45.678Z,16.2
2022-10-25T10:15:08.353Z,16.3
2022-10-25T10:19:56.238Z,16.3
2022-10-25T10:25:02.633Z,16.5
2022-10-25T10:30:09.075Z,16.7
2022-10-25T10:35:15.466Z,17.0
2022-10-25T10:41:00.942Z,17.6
2022-10-25T10:46:08.323Z,17.6
2022-10-25T10:51:50.158Z,17.7
2022-10-25T10:56:21.120Z,17.7
2022-10-25T11:01:27.741Z,17.7
2022-10-25T11:06:34.081Z,17.6
2022-10-25T11:11:40.593Z,17.6
2022-10-25T11:16:46.965Z,17.6
2022-10-25T11:21:53.341Z,17.8
2022-10-25T11:26:49.805Z,18.2
2022-10-25T11:32:06.102Z,18.7
2022-10-25T11:37:12.508Z,19.0
2022-10-25T11:42:19.166Z,19.2
2022-10-25T11:47:49.491Z,19.3
2022-10-25T11:52:31.792Z,19.5
2022-10-25T11:57:38.295Z,19.5
2022-10-25T12:02:44.760Z,19.5
2022-10-25T12:07:50.961Z,19.4
2022-10-25T12:13:25.493Z,19.3
2022-10-25T12:17:53.706Z,19.4
2022-10-25T12:23:10.093Z,19.5
2022-10-25T12:28:20.505Z,19.7
2022-10-25T12:33:23.009Z,19.9
2022-10-25T12:38:29.262Z,19.9
2022-10-25T12:43:39.662Z,19.9
2022-10-25T12:48:42.157Z,19.9
2022-10-25T12:53:47.427Z,19.9
2022-10-25T12:59:08.833Z,20.0
2022-10-25T13:04:01.298Z,20.1
2022-10-25T13:09:11.570Z,20.3
2022-10-25T13:14:03.925Z,20.4
2022-10-25T13:19:54.037Z,20.6
2022-10-25T13:24:30.712Z,20.8
2022-10-25T13:29:33.092Z,21.0
2022-10-25T13:34:53.610Z,21.2
2022-10-25T13:39:45.843Z,21.4
2022-10-25T13:44:56.236Z,21.5
2022-10-25T13:49:58.837Z,21.6
2022-10-25T13:55:05.098Z,21.7
2022-10-25T14:00:31.561Z,21.8
2022-10-25T14:05:17.873Z,21.9
2022-10-25T14:10:24.243Z,21.9
2022-10-25T14:15:20.603Z,22.0
2022-10-25T14:21:49.444Z,22.0
2022-10-25T14:25:43.663Z,22.0
2022-10-25T14:30:50.064Z,21.9
2022-10-25T14:35:56.449Z,21.8
2022-10-25T14:41:02.861Z,21.7
2022-10-25T14:46:13.238Z,21.5
2022-10-25T14:56:22.261Z,21.1
2022-10-25T15:01:28.818Z,20.9
2022-10-25T15:11:49.169Z,19.1
2022-10-25T15:17:14.504Z,18.8
2022-10-25T15:28:04.359Z,18.2
2022-10-25T15:32:51.750Z,18.2
2022-10-25T15:38:18.262Z,18.3
2022-10-25T15:42:54.532Z,18.2
2022-10-25T15:48:10.976Z,18.2
2022-10-25T15:53:21.332Z,18.0
2022-10-25T15:58:23.708Z,17.9
2022-10-25T16:03:54.162Z,17.8
2022-10-25T16:13:42.872Z,17.5
2022-10-25T16:18:49.255Z,17.3
2022-10-25T16:24:19.901Z,17.2
2022-10-25T16:29:22.266Z,17.0
2022-10-25T16:34:08.624Z,16.9
2022-10-25T16:39:35.056Z,16.8
2022-10-25T16:44:21.362Z,16.6
2022-10-25T16:49:27.774Z,16.5
2022-10-25T16:55:18.261Z,16.3
2022-10-25T16:59:40.621Z,16.2
2022-10-25T17:04:47.108Z,16.1
2022-10-25T17:09:53.603Z,15.9
2022-10-25T17:14:49.900Z,15.8
2022-10-25T17:20:06.275Z,15.7
2022-10-25T17:25:12.717Z,15.5
2022-10-25T17:31:17.203Z,15.3
2022-10-25T17:35:50.504Z,15.3
2022-10-25T17:41:06.998Z,15.2
2022-10-25T17:46:13.416Z,15.0
2022-10-25T17:51:19.812Z,14.9
2022-10-25T17:56:26.242Z,14.8
2022-10-25T18:01:32.792Z,14.8
2022-10-25T18:06:39.052Z,14.6
2022-10-25T18:11:45.536Z,14.5
2022-10-25T18:16:52.007Z,14.4
2022-10-25T18:21:58.514Z,14.3
2022-10-25T18:27:04.881Z,14.2
2022-10-25T18:32:15.276Z,14.1
2022-10-25T18:37:17.667Z,14.0
2022-10-25T18:42:24.013Z,13.9
2022-10-25T18:47:30.398Z,13.8
2022-10-25T18:57:42.134Z,13.7
2022-10-25T19:03:03.536Z,13.5
2022-10-25T19:08:19.961Z,13.4
2022-10-25T19:12:52.268Z,13.3
2022-10-25T19:18:08.686Z,13.2
2022-10-25T19:23:15.108Z,13.2
2022-10-25T19:28:11.492Z,13.1
2022-10-25T19:33:27.866Z,12.9
2022-10-25T19:38:54.445Z,12.9
2022-10-25T19:43:40.809Z,12.8
2022-10-25T19:48:47.154Z,12.7
2022-10-25T19:53:53.548Z,12.6
2022-10-25T19:58:59.959Z,12.5
2022-10-25T20:04:06.355Z,12.4
2022-10-25T20:09:12.741Z,12.3
2022-10-25T20:14:39.182Z,12.3
2022-10-25T20:19:25.502Z,12.1
2022-10-25T20:24:31.950Z,12.1
2022-10-25T20:29:38.424Z,11.9
2022-10-25T20:34:44.947Z,11.9
2022-10-25T20:40:15.372Z,11.8
2022-10-25T20:44:57.801Z,11.7
2022-10-25T20:50:04.134Z,11.6
2022-10-25T20:55:30.545Z,11.5
2022-10-25T21:00:06.881Z,11.5
2022-10-25T21:05:23.363Z,11.4
2022-10-25T21:10:53.775Z,11.3
2022-10-25T21:15:36.108Z,11.2
2022-10-25T21:20:42.518Z,11.2
2022-10-25T21:25:38.854Z,11.1
2022-10-25T21:30:55.253Z,11.0
2022-10-25T21:36:01.679Z,10.9
2022-10-25T21:41:08.018Z,10.9
2022-10-25T21:46:38.570Z,10.8
2022-10-25T21:51:41.058Z,10.7
2022-10-25T21:56:47.535Z,10.6
2022-10-25T22:01:58.092Z,10.6
2022-10-25T22:07:00.329Z,10.5
2022-10-25T22:11:46.656Z,10.5
2022-10-25T22:16:53.016Z,10.4
2022-10-25T22:21:59.406Z,10.3
2022-10-25T22:27:05.795Z,10.3
2022-10-25T22:37:38.601Z,10.2
2022-10-25T22:38:12.666Z,10.3
2022-10-25T22:42:39.000Z,10.2
2022-10-25T22:47:31.490Z,10.2
2022-10-25T22:52:37.927Z,10.1
2022-10-25T22:58:08.332Z,10.1
2022-10-25T23:02:50.967Z,10.1
2022-10-25T23:07:57.043Z,10.1
2022-10-25T23:13:03.418Z,10.1
2022-10-25T23:18:09.834Z,10.0
2022-10-25T23:23:16.183Z,10.0
2022-10-25T23:28:22.571Z,10.0
2022-10-25T23:33:28.965Z,9.9
2022-10-25T23:38:35.328Z,9.9
2022-10-25T23:43:41.776Z,9.8
2022-10-25T23:48:48.302Z,9.8
2022-10-25T23:53:54.763Z,9.8
2022-10-25T23:59:01.251Z,9.7
